Time;durP1;ratioP1;P1;durP2;ratioP2;P2;SDS_P1;SDS_P2;PMS_P1;PMS_P2;Temp;Humidity;BMP_temperature;BMP_pressure;BME280_temperature;BME280_humidity;BME280_pressure;Samples;Min_cycle;Max_cycle;Signal;HPM_P1;HPM_P2
2021/01/27 00:00:54;;;;;;;33.98;30.05;;;;;;;1.39;72.44;99974.48;127981;1101;22485;-75
2021/01/27 00:03:22;;;;;;;36.83;30.23;;;;;;;1.38;73.44;99977.20;128214;1101;25087;-74
2021/01/27 00:05:52;;;;;;;33.30;28.70;;;;;;;1.39;72.68;99982.28;128190;1101;23236;-76
2021/01/27 00:08:22;;;;;;;35.73;31.82;;;;;;;1.37;72.53;99980.77;127988;1101;24572;-75
2021/01/27 00:10:50;;;;;;;36.45;30.85;;;;;;;1.36;73.32;99977.31;128020;1101;22592;-75
2021/01/27 00:13:20;;;;;;;36.48;32.03;;;;;;;1.35;72.55;99974.84;128213;1101;22495;-74
2021/01/27 00:15:49;;;;;;;36.65;31.23;;;;;;;1.35;73.30;99980.05;128198;1100;22569;-76
2021/01/27 00:18:20;;;;;;;40.35;32.45;;;;;;;1.33;72.94;99977.58;128194;1101;22503;-75
2021/01/27 00:20:49;;;;;;;40.52;33.35;;;;;;;1.35;72.96;99970.46;128055;1101;22523;-75
2021/01/27 00:23:17;;;;;;;37.27;32.97;;;;;;;1.36;72.98;99976.48;128228;1101;22491;-74
2021/01/27 00:25:44;;;;;;;42.48;34.95;;;;;;;1.36;73.19;99974.71;128024;1101;22516;-75
2021/01/27 00:28:13;;;;;;;36.75;32.15;;;;;;;1.36;73.58;99972.11;128183;1100;23287;-75
2021/01/27 00:30:43;;;;;;;41.77;35.33;;;;;;;1.36;73.33;99972.11;128241;1101;24597;-75
2021/01/27 00:33:15;;;;;;;37.83;33.75;;;;;;;1.37;72.93;99968.58;128024;1101;22467;-75
2021/01/27 00:35:48;;;;;;;38.35;33.05;;;;;;;1.39;73.45;99974.48;128027;1101;24572;-75
2021/01/27 00:38:22;;;;;;;;;;;;;;;1.36;73.20;99977.31;128192;1101;23565;-75
2021/01/27 00:40:57;;;;;;;41.35;35.50;;;;;;;1.32;73.88;99973.30;128232;1101;21352;-75
2021/01/27 00:43:26;;;;;;;43.38;35.20;;;;;;;1.34;73.91;99976.63;127948;1101;22486;-75
2021/01/27 00:45:55;;;;;;;38.83;32.33;;;;;;;1.38;73.66;99979.81;128189;1100;22932;-76
2021/01/27 00:48:24;;;;;;;36.13;32.30;;;;;;;1.39;73.46;99979.68;128250;1100;22529;-75
2021/01/27 00:50:52;;;;;;;38.17;33.15;;;;;;;1.39;72.99;99977.08;128255;1101;22504;-74
2021/01/27 00:53:21;;;;;;;37.13;32.73;;;;;;;1.40;73.67;99980.53;128278;1099;22928;-75
2021/01/27 00:55:50;;;;;;;36.93;31.60;;;;;;;1.39;73.75;99979.68;128182;1101;22989;-75
2021/01/27 00:58:18;;;;;;;33.67;28.83;;;;;;;1.41;72.93;99980.41;128257;1101;22494;-75
2021/01/27 01:00:51;;;;;;;;;;;;;;;1.37;73.15;99976.39;128262;1101;22489;-74
2021/01/27 01:03:27;;;;;;;33.33;29.72;;;;;;;1.33;73.99;99985.38;128168;1101;21304;-74
2021/01/27 01:05:55;;;;;;;36.75;31.23;;;;;;;1.37;73.55;99984.20;128020;1101;23303;-75
2021/01/27 01:08:23;;;;;;;33.00;29.50;;;;;;;1.40;73.69;99990.95;128153;1100;22514;-75
2021/01/27 01:10:59;;;;;;;35.80;32.00;;;;;;;1.39;73.27;99990.09;128189;1101;22485;-75
2021/01/27 01:13:31;;;;;;;34.08;30.45;;;;;;;1.40;73.72;99990.95;128235;1099;22487;-74
2021/01/27 01:15:59;;;;;;;34.53;29.57;;;;;;;1.43;73.84;99992.46;128165;1100;22514;-74
2021/01/27 01:18:27;;;;;;;35.90;32.08;;;;;;;1.43;73.87;99989.86;128170;1099;22501;-74
2021/01/27 01:20:55;;;;;;;34.23;30.45;;;;;;;1.42;72.95;99986.44;128182;1100;22694;-74
2021/01/27 01:23:23;;;;;;;33.65;30.25;;;;;;;1.39;73.51;99984.89;128246;1100;22481;-74
2021/01/27 01:25:52;;;;;;;36.50;29.83;;;;;;;1.39;73.04;99987.48;128204;1100;22672;-74
2021/01/27 01:28:20;;;;;;;33.95;30.37;;;;;;;1.36;72.88;99992.92;128000;1101;24571;-74
2021/01/27 01:30:49;;;;;;;32.75;28.38;;;;;;;1.33;73.32;99993.19;127968;1101;24607;-73
2021/01/27 01:33:27;;;;;;;31.45;28.05;;;;;;;1.31;73.25;99981.23;128286;1100;22492;-75
2021/01/27 01:35:56;;;;;;;35.05;28.45;;;;;;;1.28;73.36;99984.06;128303;1101;22490;-74
2021/01/27 01:38:25;;;;;;;30.52;27.22;;;;;;;1.27;73.40;99995.43;128061;1101;22502;-74
2021/01/27 01:40:57;;;;;;;31.68;28.17;;;;;;;1.27;73.03;99992.83;128018;1101;22482;-75
2021/01/27 01:43:29;;;;;;;29.67;26.33;;;;;;;1.26;73.74;99988.55;128249;1101;22534;-74
2021/01/27 01:46:19;;;;;;;30.90;25.57;;;;;;;1.30;72.82;99985.61;128162;1100;22488;-74
2021/01/27 01:48:53;;;;;;;25.00;21.85;;;;;;;1.28;73.21;99986.67;128206;1099;22563;-75
2021/01/27 01:51:31;;;;;;;27.87;22.00;;;;;;;1.24;72.76;99986.08;128230;1100;22613;-74
2021/01/27 01:54:17;;;;;;;23.27;19.45;;;;;;;1.22;72.70;99989.73;128206;1101;22527;-74
2021/01/27 01:57:04;;;;;;;25.20;19.00;;;;;;;1.18;72.97;99989.97;128179;1101;22485;-75
2021/01/27 01:59:35;;;;;;;18.65;16.65;;;;;;;1.15;72.79;99992.80;128037;1101;22505;-74
2021/01/27 02:02:06;;;;;;;19.35;16.25;;;;;;;1.13;72.03;99983.45;128036;1100;25149;-74
2021/01/27 02:04:45;;;;;;;19.27;17.27;;;;;;;1.13;71.97;99986.05;128267;1099;25072;-74
2021/01/27 02:07:13;;;;;;;19.02;16.77;;;;;;;1.14;72.24;99993.75;128332;1101;22495;-75
2021/01/27 02:09:41;;;;;;;21.35;18.32;;;;;;;1.20;71.54;99989.87;128235;1100;22481;-75
2021/01/27 02:13:01;;;;;;;22.62;19.60;;;;;;;1.22;72.20;99992.34;128276;1100;22522;-75
2021/01/27 02:15:44;;;;;;;20.50;18.27;;;;;;;1.20;71.54;99995.07;127908;1103;22501;-74
2021/01/27 02:18:53;;;;;;;25.40;21.35;;;;;;;1.18;71.05;99989.97;127906;1104;22532;-74
2021/01/27 02:22:10;;;;;;;24.15;20.62;;;;;;;1.17;71.00;99997.91;127902;1104;23267;-75
2021/01/27 02:25:14;;;;;;;26.02;21.42;;;;;;;1.15;71.21;99992.80;127909;1102;22517;-74
2021/01/27 02:27:49;;;;;;;31.33;24.47;;;;;;;1.15;71.57;99994.58;127955;1103;22535;-75
2021/01/27 02:30:30;;;;;;;29.63;25.30;;;;;;;1.15;72.00;99995.40;127916;1105;22511;-75
2021/01/27 02:33:35;;;;;;;33.50;27.07;;;;;;;1.18;71.94;99992.56;127945;1103;22759;-75
2021/01/27 02:36:28;;;;;;;35.38;28.00;;;;;;;1.17;71.72;100001.33;127917;1102;23288;-74
2021/01/27 02:39:14;;;;;;;;;;;;;;;1.12;71.09;99994.80;127973;1103;22771;-75
2021/01/27 02:42:11;;;;;;;30.70;24.75;;;;;;;1.07;72.38;99987.36;127936;1104;21295;-75
2021/01/27 02:44:52;;;;;;;27.30;22.48;;;;;;;1.10;72.21;99981.92;127443;1106;22607;-75
2021/01/27 02:47:33;;;;;;;26.23;21.17;;;;;;;1.15;72.25;99984.99;127868;1102;22569;-75
2021/01/27 02:50:08;;;;;;;20.65;18.45;;;;;;;1.16;71.95;99989.24;127920;1102;22490;-76
2021/01/27 02:52:46;;;;;;;21.45;17.82;;;;;;;1.22;72.14;99989.73;127906;1105;22505;-74
2021/01/27 02:55:20;;;;;;;23.67;15.15;;;;;;;1.26;71.53;99985.95;127922;1103;22616;-75
2021/01/27 02:58:01;;;;;;;18.92;15.78;;;;;;;1.25;71.39;99987.73;127952;1103;22489;-75
2021/01/27 03:00:35;;;;;;;15.28;13.28;;;;;;;1.22;71.72;99987.13;127899;1102;22488;-75
2021/01/27 03:03:11;;;;;;;14.13;12.75;;;;;;;1.18;70.68;99989.97;127922;1103;22648;-75
2021/01/27 03:05:46;;;;;;;13.72;11.60;;;;;;;1.16;70.88;99993.63;127946;1103;24590;-75
2021/01/27 03:08:23;;;;;;;15.83;13.20;;;;;;;1.14;70.73;99992.93;127898;1104;22493;-75
2021/01/27 03:11:10;;;;;;;14.83;12.15;;;;;;;1.13;70.30;99999.05;127989;1104;24327;-75
2021/01/27 03:13:40;;;;;;;15.28;13.68;;;;;;;1.10;70.76;100000.14;127575;1105;22495;-75
2021/01/27 03:16:15;;;;;;;15.25;13.53;;;;;;;1.09;71.03;99995.86;127585;1105;23267;-75
2021/01/27 03:18:55;;;;;;;15.50;12.30;;;;;;;1.08;70.25;100009.82;127981;1104;22613;-76
2021/01/27 03:21:29;;;;;;;14.53;11.63;;;;;;;1.09;70.79;100008.05;127951;1101;22526;-75
2021/01/27 03:24:05;;;;;;;12.93;11.15;;;;;;;1.06;70.02;100008.27;128257;1099;22792;-75
2021/01/27 03:26:52;;;;;;;12.17;10.67;;;;;;;1.05;70.09;100011.83;128290;1101;22617;-75
2021/01/27 03:29:47;;;;;;;15.40;11.77;;;;;;;1.03;69.74;100019.73;128175;1100;22486;-75
2021/01/27 03:32:39;;;;;;;13.78;10.43;;;;;;;1.02;69.63;100020.67;127969;1101;22459;-75
2021/01/27 03:35:32;;;;;;;13.60;10.65;;;;;;;1.00;70.18;100008.72;128141;1101;25071;-75
2021/01/27 03:38:10;;;;;;;10.27;7.87;;;;;;;0.98;69.29;100018.43;128210;1101;22488;-75
2021/01/27 03:40:43;;;;;;;8.63;7.80;;;;;;;0.96;68.93;100015.11;128224;1099;22492;-74
2021/01/27 03:43:27;;;;;;;12.70;9.20;;;;;;;0.94;69.63;100020.44;128296;1100;22566;-75
2021/01/27 03:46:05;;;;;;;9.67;8.47;;;;;;;0.94;68.87;100021.26;128218;1099;22483;-75
2021/01/27 03:48:41;;;;;;;9.15;8.10;;;;;;;0.96;68.71;100033.31;128195;1100;22531;-74
2021/01/27 03:51:12;;;;;;;11.43;7.97;;;;;;;0.96;69.34;100022.91;128254;1099;22612;-74
2021/01/27 03:53:40;;;;;;;12.10;8.18;;;;;;;0.95;69.11;100019.48;128204;1101;22505;-75
2021/01/27 03:56:22;;;;;;;8.88;7.47;;;;;;;0.97;68.37;100021.95;128221;1101;23447;-75
2021/01/27 03:58:50;;;;;;;9.03;7.00;;;;;;;0.94;68.39;100018.66;128192;1100;22522;-75
2021/01/27 04:01:21;;;;;;;9.10;7.00;;;;;;;0.91;68.66;100021.48;128158;1100;24575;-75
2021/01/27 04:03:52;;;;;;;;;;;;;;;0.87;68.07;100025.27;128267;1101;22520;-75
2021/01/27 04:06:21;;;;;;;8.50;6.55;;;;;;;0.83;68.75;100033.38;128190;1101;21318;-75
2021/01/27 04:08:49;;;;;;;9.53;7.28;;;;;;;0.85;68.64;100028.91;128212;1101;22500;-75
2021/01/27 04:11:17;;;;;;;6.78;6.08;;;;;;;0.84;68.20;100022.89;128247;1099;22521;-75
2021/01/27 04:13:45;;;;;;;8.58;7.30;;;;;;;0.84;68.06;100020.28;128234;1101;22519;-75
2021/01/27 04:16:13;;;;;;;12.43;7.12;;;;;;;0.86;67.86;100027.95;128234;1100;22488;-75
2021/01/27 04:18:42;;;;;;;10.65;7.47;;;;;;;0.86;68.25;100031.38;128212;1100;23397;-75
2021/01/27 04:21:12;;;;;;;8.60;7.58;;;;;;;0.86;67.39;100023.58;128201;1100;22486;-75
2021/01/27 04:23:40;;;;;;;9.00;7.92;;;;;;;0.86;67.24;100028.78;128173;1099;22473;-75
2021/01/27 04:26:08;;;;;;;9.58;8.13;;;;;;;0.87;67.81;100035.67;128210;1101;22489;-76
2021/01/27 04:28:36;;;;;;;11.75;8.60;;;;;;;0.87;67.69;100033.06;127971;1101;22469;-75
2021/01/27 04:31:04;;;;;;;10.98;9.20;;;;;;;0.87;67.60;100032.23;128210;1099;22562;-75
2021/01/27 04:33:32;;;;;;;9.33;8.43;;;;;;;0.86;67.90;100039.19;128210;1099;22557;-75
2021/01/27 04:36:00;;;;;;;10.88;8.85;;;;;;;0.86;67.34;100035.77;128203;1100;24586;-76
2021/01/27 04:38:28;;;;;;;11.33;8.95;;;;;;;0.86;67.11;100038.36;128168;1100;24256;-75
2021/01/27 04:40:58;;;;;;;12.60;8.43;;;;;;;0.86;68.04;100043.56;128190;1101;22612;-75
2021/01/27 04:43:38;;;;;;;12.15;9.65;;;;;;;0.87;67.94;100038.27;128214;1099;22526;-76
2021/01/27 04:46:20;;;;;;;10.03;8.28;;;;;;;0.86;66.86;100048.77;128102;1101;22661;-75
2021/01/27 04:48:58;;;;;;;11.08;8.05;;;;;;;0.81;67.02;100043.09;128265;1101;22526;-75
2021/01/27 04:51:35;;;;;;;9.18;8.25;;;;;;;0.78;67.94;100041.53;128149;1101;23403;-75
2021/01/27 04:54:33;;;;;;;15.83;11.97;;;;;;;0.77;67.82;100036.44;128186;1101;22572;-75
2021/01/27 04:57:38;;;;;;;9.28;8.30;;;;;;;0.73;67.81;100040.20;128009;1101;24571;-76
2021/01/27 05:00:51;;;;;;;11.08;8.55;;;;;;;0.73;67.33;100042.80;128073;1099;22568;-73
2021/01/27 05:03:57;;;;;;;11.93;8.05;;;;;;;0.74;67.25;100044.48;128075;1101;22475;-73
2021/01/27 05:06:38;;;;;;;9.90;8.10;;;;;;;0.69;67.81;100042.20;128189;1101;22519;-73
2021/01/27 05:09:18;;;;;;;10.82;8.80;;;;;;;0.69;67.42;100050.00;127961;1101;22514;-74
2021/01/27 05:11:47;;;;;;;9.73;8.73;;;;;;;0.68;67.86;100051.78;127974;1101;22499;-76
2021/01/27 05:14:19;;;;;;;11.65;8.38;;;;;;;0.68;67.47;100040.55;128029;1101;22477;-74
2021/01/27 05:16:50;;;;;;;12.20;8.83;;;;;;;0.70;67.93;100055.11;128034;1100;22487;-74
2021/01/27 05:19:19;;;;;;;10.70;8.35;;;;;;;0.69;67.96;100048.22;127964;1101;23349;-74
2021/01/27 05:21:54;;;;;;;12.88;9.58;;;;;;;0.67;67.00;100047.53;127987;1101;22489;-75
2021/01/27 05:24:22;;;;;;;10.10;9.08;;;;;;;0.68;67.69;100050.95;127988;1101;24654;-75
2021/01/27 05:27:05;;;;;;;11.15;10.05;;;;;;;0.67;67.47;100046.70;127961;1101;22479;-75
2021/01/27 05:29:43;;;;;;;11.18;9.85;;;;;;;0.65;66.86;100046.80;127969;1101;22475;-75
2021/01/27 05:32:16;;;;;;;9.75;8.40;;;;;;;0.63;67.09;100050.44;127949;1101;23394;-75
2021/01/27 05:34:56;;;;;;;9.78;7.92;;;;;;;0.64;67.29;100057.33;128066;1100;22505;-75
2021/01/27 05:37:29;;;;;;;10.10;7.00;;;;;;;0.64;66.83;100057.33;128184;1101;25846;-75
2021/01/27 05:40:37;;;;;;;8.45;6.42;;;;;;;0.65;67.61;100051.17;128266;1100;22508;-74
2021/01/27 05:43:22;;;;;;;11.55;7.90;;;;;;;0.67;67.60;100059.70;127502;1104;22492;-75
2021/01/27 05:45:51;;;;;;;8.15;7.17;;;;;;;0.69;66.84;100055.20;127966;1104;22520;-74
2021/01/27 05:48:32;;;;;;;11.60;7.77;;;;;;;0.73;67.06;100056.63;128014;1103;22658;-74
2021/01/27 05:51:06;;;;;;;9.20;7.50;;;;;;;0.75;66.84;100059.13;128004;1105;24836;-75
2021/01/27 05:53:34;;;;;;;9.20;7.25;;;;;;;0.71;66.77;100050.73;127906;1102;22611;-74
2021/01/27 05:56:08;;;;;;;7.78;6.60;;;;;;;0.69;67.42;100057.80;127874;1103;24645;-74
2021/01/27 05:58:42;;;;;;;8.78;7.20;;;;;;;0.69;67.10;100060.40;128038;1103;22545;-74
2021/01/27 06:01:21;;;;;;;12.05;8.93;;;;;;;0.66;67.21;100063.22;128009;1105;24274;-74
2021/01/27 06:03:55;;;;;;;10.08;8.78;;;;;;;0.66;67.28;100052.82;127939;1105;23259;-74
2021/01/27 06:06:27;;;;;;;9.43;7.87;;;;;;;0.66;67.65;100052.82;127892;1105;22718;-74
2021/01/27 06:08:58;;;;;;;9.53;8.15;;;;;;;0.67;67.40;100060.53;127911;1102;22547;-74
2021/01/27 06:11:27;;;;;;;13.35;9.63;;;;;;;0.66;66.88;100064.05;128051;1104;22586;-77
2021/01/27 06:14:21;;;;;;;8.90;8.00;;;;;;;0.67;67.57;100065.73;127980;1102;22573;-73
2021/01/27 06:16:49;;;;;;;11.12;8.68;;;;;;;0.65;67.48;100071.97;127444;1107;22552;-73
2021/01/27 06:19:26;;;;;;;8.73;7.47;;;;;;;0.66;66.63;100071.84;127623;1103;22537;-74
2021/01/27 06:22:12;;;;;;;11.88;8.58;;;;;;;0.66;66.85;100073.63;127499;1105;25088;-73
2021/01/27 06:25:16;;;;;;;11.22;8.35;;;;;;;0.66;66.49;100081.42;127903;1102;22498;-73
2021/01/27 06:27:50;;;;;;;10.38;7.53;;;;;;;0.63;66.91;100079.89;127946;1103;22573;-73
2021/01/27 06:30:45;;;;;;;12.73;9.63;;;;;;;0.68;66.91;100082.15;127908;1103;25086;-73
2021/01/27 06:33:54;;;;;;;11.28;8.40;;;;;;;0.63;66.94;100085.09;128291;1102;22487;-72
2021/01/27 06:37:07;;;;;;;12.55;9.15;;;;;;;0.63;67.34;100084.23;127751;1105;22773;-73
2021/01/27 06:40:29;;;;;;;12.10;9.25;;;;;;;0.64;66.85;100089.34;127659;1105;22613;-73
2021/01/27 06:43:42;;;;;;;12.73;8.70;;;;;;;0.64;66.89;100086.74;128041;1104;22544;-74
2021/01/27 06:46:33;;;;;;;10.38;7.62;;;;;;;0.63;66.72;100086.84;127578;1105;24632;-72
2021/01/27 06:49:17;;;;;;;11.80;8.40;;;;;;;0.62;66.61;100090.39;127886;1104;22545;-73
2021/01/27 06:52:20;;;;;;;11.08;8.05;;;;;;;0.62;67.08;100088.61;128476;1102;22653;-72
2021/01/27 06:55:19;;;;;;;10.68;8.05;;;;;;;0.62;66.73;100085.19;128166;1101;22532;-71
2021/01/27 06:58:08;;;;;;;8.98;7.87;;;;;;;0.62;67.07;100092.98;128258;1100;22494;-73
2021/01/27 07:01:27;;;;;;;16.07;9.63;;;;;;;0.63;67.33;100098.09;128135;1101;22488;-72
2021/01/27 07:04:48;;;;;;;14.15;11.12;;;;;;;0.61;66.79;100099.95;129312;1099;23178;-75
2021/01/27 07:07:42;;;;;;;13.05;10.25;;;;;;;0.62;66.80;100101.61;127978;1103;24317;-78
2021/01/27 07:10:31;;;;;;;17.90;11.85;;;;;;;0.80;67.23;100101.22;128201;1104;22515;-76
2021/01/27 07:13:15;;;;;;;15.35;13.72;;;;;;;0.88;66.83;100099.73;127719;1104;22509;-72
2021/01/27 07:15:58;;;;;;;17.77;13.93;;;;;;;0.90;67.21;100103.06;127918;1104;22475;-72
2021/01/27 07:19:05;;;;;;;16.55;13.65;;;;;;;0.88;67.19;100097.13;127929;1104;23453;-73
2021/01/27 07:21:46;;;;;;;17.12;13.53;;;;;;;0.87;66.33;100098.08;127962;1104;22617;-73
2021/01/27 07:25:09;;;;;;;17.65;13.05;;;;;;;0.84;66.22;100090.50;128157;1104;22487;-75
2021/01/27 07:28:12;;;;;;;16.57;11.30;;;;;;;0.75;66.37;100101.56;127840;1106;22509;-73
2021/01/27 07:31:19;;;;;;;14.55;12.95;;;;;;;0.71;66.70;100102.73;127565;1106;22620;-75
2021/01/27 07:34:03;;;;;;;14.38;10.55;;;;;;;0.67;67.12;100098.70;127510;1106;22556;-75
2021/01/27 07:36:53;;;;;;;15.53;11.50;;;;;;;0.66;66.94;100113.44;127540;1107;22936;-75
2021/01/27 07:39:29;;;;;;;17.90;14.20;;;;;;;0.67;67.01;100106.50;127461;1107;22526;-75
2021/01/27 07:42:44;;;;;;;20.75;12.80;;;;;;;0.68;66.56;100111.58;127454;1107;22617;-75
2021/01/27 07:45:21;;;;;;;15.38;11.40;;;;;;;0.67;66.50;100106.50;128004;1103;22933;-76
2021/01/27 07:48:18;;;;;;;11.73;8.98;;;;;;;0.66;66.63;100104.81;127924;1103;22509;-76
2021/01/27 07:51:08;;;;;;;17.70;10.85;;;;;;;0.62;66.89;100104.21;127945;1105;22575;-75
2021/01/27 07:54:00;;;;;;;15.98;11.30;;;;;;;0.62;66.91;100118.98;127932;1104;22517;-75
2021/01/27 07:56:56;;;;;;;19.23;11.47;;;;;;;0.61;66.42;100110.36;127934;1104;22689;-75
2021/01/27 07:59:50;;;;;;;17.25;12.58;;;;;;;0.61;67.04;100112.95;127948;1105;22801;-75
2021/01/27 08:02:24;;;;;;;18.65;13.70;;;;;;;0.61;66.28;100118.16;127885;1101;24347;-76
2021/01/27 08:05:12;;;;;;;29.57;15.75;;;;;;;0.76;67.72;100121.41;128248;1101;22495;-80
2021/01/27 08:07:49;;;;;;;26.93;18.27;;;;;;;1.02;66.90;100122.13;128082;1101;22471;-77
2021/01/27 08:10:26;;;;;;;29.05;16.95;;;;;;;1.26;66.52;100124.69;128375;1100;22495;-76
2021/01/27 08:13:09;;;;;;;24.57;17.32;;;;;;;1.44;66.51;100126.89;128323;1101;22606;-76
2021/01/27 08:15:43;;;;;;;;;;;;;;;1.50;65.08;100124.66;128303;1099;25823;-76
2021/01/27 08:18:18;;;;;;;24.00;15.03;;;;;;;1.39;65.37;100129.81;128004;1099;21293;-75
2021/01/27 08:21:26;;;;;;;17.65;11.93;;;;;;;1.32;63.95;100134.65;128173;1100;24360;-76
2021/01/27 08:23:55;;;;;;;25.62;14.93;;;;;;;1.21;64.91;100137.23;128252;1100;22486;-75
2021/01/27 08:26:42;;;;;;;21.60;14.65;;;;;;;1.24;64.81;100136.17;128219;1099;22524;-75
2021/01/27 08:29:12;;;;;;;18.48;14.80;;;;;;;1.20;63.94;100138.17;128259;1100;24575;-75
2021/01/27 08:31:41;;;;;;;22.93;15.45;;;;;;;1.21;63.98;100136.40;128460;1100;24288;-75
2021/01/27 08:34:44;;;;;;;27.00;16.60;;;;;;;1.22;63.94;100138.87;128242;1101;24584;-76
2021/01/27 08:37:26;;;;;;;28.38;19.35;;;;;;;1.23;64.36;100142.30;128189;1100;22462;-76
2021/01/27 08:40:30;;;;;;;17.55;12.73;;;;;;;1.23;64.15;100137.09;128310;1101;22485;-74
2021/01/27 08:43:00;;;;;;;19.00;12.45;;;;;;;1.19;64.15;100144.30;127927;1102;22497;-75
2021/01/27 08:45:33;;;;;;;26.85;17.48;;;;;;;1.21;64.33;100137.23;127564;1104;22508;-75
2021/01/27 08:48:06;;;;;;;24.65;16.37;;;;;;;1.22;64.25;100140.66;127901;1103;24326;-76
2021/01/27 08:50:49;;;;;;;16.90;11.75;;;;;;;1.22;64.27;100148.45;128019;1102;23402;-76
2021/01/27 08:53:20;;;;;;;27.32;17.90;;;;;;;1.21;64.27;100152.02;127912;1104;25231;-75
2021/01/27 08:55:59;;;;;;;78.22;42.98;;;;;;;1.21;63.90;100145.03;127681;1103;24613;-75
2021/01/27 08:58:39;;;;;;;77.53;39.20;;;;;;;1.26;64.80;100149.88;127971;1104;22712;-75
2021/01/27 09:01:21;;;;;;;44.50;24.37;;;;;;;1.29;64.41;100147.88;127901;1105;22539;-76
2021/01/27 09:03:54;;;;;;;39.20;22.60;;;;;;;1.28;63.98;100154.04;127985;1102;22490;-75
2021/01/27 09:06:27;;;;;;;42.23;22.37;;;;;;;1.28;64.12;100148.84;128068;1103;22620;-75
2021/01/27 09:09:15;;;;;;;30.57;19.77;;;;;;;1.30;64.56;100157.38;128025;1104;25957;-75
2021/01/27 09:11:44;;;;;;;41.92;23.12;;;;;;;1.35;64.15;100149.22;128021;1104;22508;-76
2021/01/27 09:14:15;;;;;;;53.35;28.55;;;;;;;1.40;64.96;100147.94;127635;1105;22541;-75
2021/01/27 09:16:45;;;;;;;68.40;39.10;;;;;;;1.45;64.94;100150.19;128018;1103;24603;-75
2021/01/27 09:19:18;;;;;;;45.52;25.62;;;;;;;1.53;65.28;100147.83;128021;1101;22489;-76
2021/01/27 09:22:13;;;;;;;;;;;;;;;1.62;64.47;100152.35;128305;1100;24661;-76
2021/01/27 09:24:48;;;;;;;28.98;16.93;;;;;;;1.69;65.42;100147.52;128326;1101;21320;-75
2021/01/27 09:27:27;;;;;;;29.57;18.10;;;;;;;1.83;65.25;100157.73;128219;1101;22492;-76
2021/01/27 09:30:16;;;;;;;25.57;18.37;;;;;;;1.91;64.56;100154.54;128210;1101;23159;-76
2021/01/27 09:32:45;;;;;;;27.30;18.32;;;;;;;2.01;65.10;100155.50;128184;1099;23536;-74
2021/01/27 09:35:23;;;;;;;30.35;17.60;;;;;;;2.05;65.47;100156.91;128158;1100;22524;-75
2021/01/27 09:37:57;;;;;;;33.92;22.45;;;;;;;2.02;64.54;100148.50;128145;1101;22616;-75
2021/01/27 09:40:38;;;;;;;34.37;19.47;;;;;;;2.02;64.80;100153.72;128009;1101;22734;-75
2021/01/27 09:43:12;;;;;;;27.40;17.42;;;;;;;2.08;64.91;100158.46;128027;1100;22518;-75
2021/01/27 09:45:46;;;;;;;23.42;14.53;;;;;;;2.10;65.70;100157.40;128345;1099;22914;-75
2021/01/27 09:48:19;;;;;;;19.90;16.23;;;;;;;2.10;65.01;100152.19;128086;1100;23327;-75
2021/01/27 09:51:00;;;;;;;18.00;13.55;;;;;;;2.15;65.20;100157.03;128069;1100;22486;-75
2021/01/27 09:53:35;;;;;;;29.20;17.50;;;;;;;2.23;65.63;100161.64;128095;1101;22614;-74
2021/01/27 09:56:04;;;;;;;25.95;15.93;;;;;;;2.32;66.08;100148.73;128317;1101;23254;-75
2021/01/27 09:58:38;;;;;;;22.82;15.58;;;;;;;2.39;65.67;100143.04;128386;1101;22487;-76
2021/01/27 10:01:13;;;;;;;24.27;15.73;;;;;;;2.43;66.29;100142.67;128056;1101;22468;-76
2021/01/27 10:03:45;;;;;;;20.83;14.10;;;;;;;2.52;66.17;100144.56;128248;1100;23254;-75
2021/01/27 10:06:45;;;;;;;21.30;13.70;;;;;;;2.58;65.75;100151.90;128302;1100;22495;-75
2021/01/27 10:09:22;;;;;;;20.92;14.53;;;;;;;2.65;66.34;100139.20;128444;1101;22524;-75
2021/01/27 10:12:27;;;;;;;26.35;16.87;;;;;;;2.71;66.12;100143.11;128315;1101;22639;-76
2021/01/27 10:15:22;;;;;;;29.87;19.27;;;;;;;2.73;66.07;100131.61;128240;1100;22502;-75
2021/01/27 10:18:22;;;;;;;27.62;14.60;;;;;;;2.66;65.13;100146.06;128270;1101;22570;-76
2021/01/27 10:21:04;;;;;;;26.00;16.70;;;;;;;2.59;65.33;100148.33;128308;1100;22526;-75
2021/01/27 10:23:44;;;;;;;41.37;22.40;;;;;;;2.57;65.25;100147.64;128205;1099;22484;-76
2021/01/27 10:26:45;;;;;;;34.38;19.30;;;;;;;2.62;65.59;100139.45;128229;1099;22517;-75
2021/01/27 10:29:37;;;;;;;33.02;16.90;;;;;;;2.67;65.95;100139.10;129080;1103;22557;-75
2021/01/27 10:32:32;;;;;;;28.50;17.98;;;;;;;2.80;65.65;100137.99;127972;1104;22513;-75
2021/01/27 10:35:21;;;;;;;23.75;14.58;;;;;;;2.94;65.46;100130.84;127945;1104;23422;-76
2021/01/27 10:38:14;;;;;;;20.35;12.25;;;;;;;3.00;66.21;100131.16;127964;1104;24300;-75
2021/01/27 10:41:07;;;;;;;20.37;11.80;;;;;;;3.09;65.32;100131.36;128048;1102;22823;-75
2021/01/27 10:43:35;;;;;;;21.73;14.43;;;;;;;3.08;65.42;100132.32;127938;1104;22512;-76
2021/01/27 10:46:30;;;;;;;23.83;16.48;;;;;;;3.13;65.39;100128.36;127967;1103;24379;-77
2021/01/27 10:48:59;;;;;;;17.45;12.78;;;;;;;3.19;65.38;100122.64;127837;1105;22800;-76
2021/01/27 10:51:28;;;;;;;24.98;15.32;;;;;;;3.36;65.65;100123.86;127548;1105;22524;-76
2021/01/27 10:54:01;;;;;;;19.62;13.50;;;;;;;3.54;65.71;100127.57;128009;1104;22649;-76
2021/01/27 10:56:29;;;;;;;22.07;14.30;;;;;;;3.74;65.12;100117.23;128073;1104;22506;-76
2021/01/27 10:58:57;;;;;;;25.12;14.38;;;;;;;4.01;64.98;100127.12;128072;1104;22828;-77
2021/01/27 11:01:25;;;;;;;23.75;13.88;;;;;;;4.12;63.87;100119.19;127742;1105;24699;-76
2021/01/27 11:03:54;;;;;;;21.70;13.48;;;;;;;4.12;63.92;100119.19;127699;1104;24350;-77
2021/01/27 11:06:22;;;;;;;23.77;14.45;;;;;;;4.08;62.87;100117.80;128331;1100;24272;-76
2021/01/27 11:08:52;;;;;;;22.02;13.13;;;;;;;4.06;62.75;100109.25;128149;1101;24861;-76
2021/01/27 11:11:20;;;;;;;20.57;13.48;;;;;;;4.13;63.32;100114.78;128125;1101;22944;-76
2021/01/27 11:13:48;;;;;;;19.35;13.50;;;;;;;4.23;62.58;100110.41;128323;1099;23334;-76
2021/01/27 11:16:17;;;;;;;30.12;13.78;;;;;;;4.26;62.32;100110.14;128377;1101;22495;-76
2021/01/27 11:18:45;;;;;;;17.45;13.15;;;;;;;4.20;61.64;100108.09;128219;1099;22963;-74
2021/01/27 11:21:13;;;;;;;23.85;13.95;;;;;;;4.34;62.81;100102.48;128396;1099;22606;-75
2021/01/27 11:23:41;;;;;;;24.52;14.60;;;;;;;4.56;63.04;100111.05;128520;1101;22495;-75
2021/01/27 11:26:09;;;;;;;20.77;14.98;;;;;;;4.55;61.80;100110.23;128396;1101;22524;-75
2021/01/27 11:28:37;;;;;;;24.47;14.00;;;;;;;4.56;61.98;100111.87;128410;1099;24087;-75
2021/01/27 11:31:05;;;;;;;26.37;15.35;;;;;;;4.67;61.40;100111.77;128117;1101;22648;-75
2021/01/27 11:33:33;;;;;;;21.87;14.63;;;;;;;4.68;61.20;100100.33;128104;1101;22623;-75
2021/01/27 11:36:04;;;;;;;27.87;16.37;;;;;;;4.59;60.46;100101.14;128350;1101;22495;-75
2021/01/27 11:38:32;;;;;;;23.10;13.15;;;;;;;4.41;59.96;100105.39;128225;1101;22587;-75
2021/01/27 11:41:00;;;;;;;16.67;11.78;;;;;;;4.19;59.78;100115.08;128467;1100;22477;-75
2021/01/27 11:43:29;;;;;;;17.23;11.30;;;;;;;4.03;59.97;100103.46;128162;1101;22524;-75
2021/01/27 11:45:57;;;;;;;14.30;8.98;;;;;;;3.90;59.42;100103.68;128411;1101;22506;-75
2021/01/27 11:48:41;;;;;;;16.93;10.13;;;;;;;3.74;59.37;100102.38;128403;1100;23336;-75
2021/01/27 11:51:12;;;;;;;16.73;9.75;;;;;;;3.68;59.59;100105.52;128407;1099;22629;-75
2021/01/27 11:53:40;;;;;;;15.32;8.20;;;;;;;3.58;59.98;100112.47;128144;1101;22800;-76
2021/01/27 11:56:10;;;;;;;21.35;9.80;;;;;;;3.53;60.25;100112.02;128343;1101;22579;-75
2021/01/27 11:58:39;;;;;;;17.85;10.15;;;;;;;3.52;59.69;100105.14;128365;1101;22526;-76
2021/01/27 12:01:07;;;;;;;14.07;8.53;;;;;;;3.52;59.31;100105.14;128097;1101;22534;-75
2021/01/27 12:03:35;;;;;;;15.55;7.78;;;;;;;3.48;59.45;100103.75;128179;1101;24572;-76
2021/01/27 12:06:04;;;;;;;13.70;7.92;;;;;;;3.42;59.17;100105.08;128141;1101;24616;-75
2021/01/27 12:08:32;;;;;;;12.55;7.58;;;;;;;3.37;58.92;100102.04;128111;1101;23501;-76
2021/01/27 12:11:00;;;;;;;10.48;6.55;;;;;;;3.35;59.27;100103.11;128369;1100;22495;-76